LZTT/TAT METAR and TAF weather

Enter ICAO airport designator
Station Type Date Time Source
LZTT METAR 2022/06/30 01:00 UTC NOAA

LZTT 300100Z 25006KT CAVOK 17/15 Q1017


Station Type Date Time Source
LZTT Decoded METAR 2022/06/30 01:00 UTC NOAA

Poprad / Tatry, Slovakia (LZTT) 49-04N 020-15E 695M
Jun 29, 2022 - 09:00 PM EDT / 2022.06.30 0100 UTC
Wind: from the WSW (250 degrees) at 7 MPH (6 KT):0
Visibility: greater than 7 mile(s):0
Temperature: 62 F (17 C)
Dew Point: 59 F (15 C)
Relative Humidity: 88%
Pressure (altimeter): 30.03 in. Hg (1017 hPa)
ob: LZTT 300100Z 25006KT CAVOK 17/15 Q1017
cycle: 1

Station Type Date Time Source
LZTT TAF 2022/06/29 18:13 UTC NOAA

TAF LZTT 291715Z 2918/3018 06007KT 9999 FEW060
TEMPO 2918/2921 SHRA SCT055CB PROB40
TEMPO 2918/2921 TSRA

Example: see airport list